createdAt,value
2022-10-05T00:02:37.611Z,2.03
2022-10-05T00:07:06.892Z,2.13
2022-10-05T00:15:41.489Z,1.70
2022-10-05T00:19:58.640Z,1.85
2022-10-05T00:24:19.941Z,2.20
2022-10-05T00:28:37.197Z,2.00
2022-10-05T00:32:59.359Z,2.20
2022-10-05T00:37:16.942Z,2.22
2022-10-05T00:41:55.254Z,2.10
2022-10-05T00:46:31.942Z,2.00
2022-10-05T00:51:11.715Z,2.33
2022-10-05T00:55:38.430Z,2.08
2022-10-05T01:00:13.079Z,2.22
2022-10-05T01:04:36.803Z,2.10
2022-10-05T01:09:09.077Z,2.17
2022-10-05T01:13:57.359Z,1.90
2022-10-05T01:18:39.197Z,2.00
2022-10-05T01:23:17.909Z,2.22
2022-10-05T01:27:50.797Z,1.98
2022-10-05T01:32:13.074Z,2.80
2022-10-05T01:36:38.971Z,2.30
2022-10-05T01:41:40.225Z,2.13
2022-10-05T01:46:23.489Z,2.10
2022-10-05T01:50:49.296Z,2.17
2022-10-05T01:55:19.434Z,2.30
2022-10-05T02:00:06.565Z,2.00
2022-10-05T02:09:39.557Z,2.30
2022-10-05T02:14:02.745Z,2.67
2022-10-05T02:18:23.416Z,2.55
2022-10-05T02:22:49.106Z,2.00
2022-10-05T02:27:08.688Z,2.50
2022-10-05T02:31:31.298Z,1.70
2022-10-05T02:35:48.597Z,2.47
2022-10-05T02:40:25.647Z,2.50
2022-10-05T02:45:00.747Z,2.33
2022-10-05T02:49:52.163Z,2.58
2022-10-05T02:54:38.985Z,2.70
2022-10-05T02:59:17.095Z,2.85
2022-10-05T03:03:43.123Z,2.47
2022-10-05T03:08:09.421Z,2.80
2022-10-05T03:12:48.791Z,2.22
2022-10-05T03:17:17.919Z,2.60
2022-10-05T03:21:59.775Z,2.58
2022-10-05T03:26:22.797Z,3.15
2022-10-05T03:31:09.443Z,2.60
2022-10-05T03:35:32.795Z,3.10
2022-10-05T03:40:03.039Z,3.00
2022-10-05T03:44:26.322Z,3.03
2022-10-05T03:48:52.410Z,3.60
2022-10-05T03:53:32.792Z,3.88
2022-10-05T03:57:53.287Z,3.92
2022-10-05T04:02:23.823Z,3.20
2022-10-05T04:06:52.354Z,3.15
2022-10-05T04:11:18.288Z,3.40
2022-10-05T04:15:43.044Z,3.90
2022-10-05T04:20:35.590Z,3.83
2022-10-05T04:25:17.252Z,3.75
2022-10-05T04:29:41.650Z,4.35
2022-10-05T04:34:25.510Z,4.15
2022-10-05T04:39:13.804Z,4.05
2022-10-05T04:43:38.655Z,3.90
2022-10-05T04:48:09.203Z,4.43
2022-10-05T04:52:36.497Z,4.72
2022-10-05T04:56:58.396Z,4.70
2022-10-05T05:01:18.423Z,3.90
2022-10-05T05:06:17.446Z,3.90
2022-10-05T05:10:50.345Z,3.05
2022-10-05T05:15:23.032Z,3.92
2022-10-05T05:20:18.334Z,4.10
2022-10-05T05:24:49.123Z,6.18
2022-10-05T05:29:17.698Z,9.88
2022-10-05T05:34:05.117Z,5.40
2022-10-05T05:38:34.600Z,3.72
2022-10-05T05:43:03.184Z,4.15
2022-10-05T05:47:37.886Z,3.60
2022-10-05T05:51:59.894Z,3.42
2022-10-05T05:56:27.277Z,3.28
2022-10-05T06:00:58.405Z,4.05
2022-10-05T06:05:24.266Z,3.20
2022-10-05T06:09:45.002Z,3.42
2022-10-05T06:14:10.451Z,3.35
2022-10-05T06:18:30.598Z,3.22
2022-10-05T06:22:49.590Z,3.35
2022-10-05T06:27:26.459Z,3.40
2022-10-05T06:32:13.485Z,3.47
2022-10-05T06:36:36.012Z,3.38
2022-10-05T06:41:11.709Z,3.20
2022-10-05T06:45:41.620Z,3.55
2022-10-05T06:50:16.961Z,3.08
2022-10-05T06:55:25.961Z,3.30
2022-10-05T06:59:46.018Z,3.65
2022-10-05T07:04:09.437Z,3.08
2022-10-05T07:09:02.993Z,2.85
2022-10-05T07:13:29.055Z,2.90
2022-10-05T07:18:16.924Z,2.45
2022-10-05T07:22:58.503Z,3.10
2022-10-05T07:27:24.025Z,3.03
2022-10-05T07:31:51.278Z,2.88
2022-10-05T07:36:54.633Z,2.70
2022-10-05T07:41:22.950Z,3.10
2022-10-05T07:45:49.020Z,2.88
2022-10-05T07:50:24.707Z,2.72
2022-10-05T07:55:07.411Z,2.42
2022-10-05T07:59:33.338Z,3.08
2022-10-05T08:04:03.391Z,2.65
2022-10-05T08:08:39.659Z,2.35
2022-10-05T08:13:07.460Z,2.90
2022-10-05T08:17:55.616Z,2.65
2022-10-05T08:22:25.823Z,2.75
2022-10-05T08:27:02.116Z,1.20
2022-10-05T08:31:25.104Z,2.90
2022-10-05T08:35:45.504Z,2.97
2022-10-05T08:40:31.107Z,2.95
2022-10-05T08:45:31.911Z,2.70
2022-10-05T08:50:01.088Z,2.90
2022-10-05T08:58:57.372Z,6.95
2022-10-05T09:03:34.344Z,2.47
2022-10-05T09:08:10.676Z,2.08
2022-10-05T09:12:42.853Z,1.52
2022-10-05T09:17:21.176Z,2.40
2022-10-05T09:21:48.234Z,2.53
2022-10-05T09:26:41.916Z,2.40
2022-10-05T09:31:24.350Z,2.25
2022-10-05T09:36:09.229Z,2.22
2022-10-05T09:40:47.571Z,1.92
2022-10-05T09:46:00.201Z,2.17
2022-10-05T09:51:03.785Z,1.95
2022-10-05T09:55:54.218Z,2.05
2022-10-05T10:00:36.014Z,2.03
2022-10-05T10:05:21.939Z,2.20
2022-10-05T10:10:10.310Z,2.72
2022-10-05T10:14:49.509Z,2.42
2022-10-05T10:19:35.919Z,1.88
2022-10-05T10:24:20.074Z,2.10
2022-10-05T10:29:05.394Z,1.80
2022-10-05T10:33:50.509Z,2.00
2022-10-05T10:38:30.235Z,1.67
2022-10-05T10:47:45.927Z,1.52
2022-10-05T10:52:18.910Z,1.35
2022-10-05T10:57:04.512Z,1.48
2022-10-05T11:01:30.623Z,1.40
2022-10-05T11:06:24.833Z,0.98
2022-10-05T11:11:00.514Z,1.70
2022-10-05T11:15:39.317Z,1.40
2022-10-05T11:20:04.435Z,1.90
2022-10-05T11:24:47.998Z,2.17
2022-10-05T11:29:41.484Z,1.77
2022-10-05T11:34:32.400Z,2.13
2022-10-05T11:39:08.184Z,1.70
2022-10-05T11:43:46.603Z,1.77
2022-10-05T11:48:40.680Z,1.90
2022-10-05T11:53:03.382Z,2.10
2022-10-05T11:57:32.746Z,1.88
2022-10-05T12:06:52.341Z,1.90
2022-10-05T12:11:49.078Z,1.60
2022-10-05T12:16:34.213Z,1.60
2022-10-05T12:21:20.050Z,1.45
2022-10-05T12:25:48.244Z,1.60
2022-10-05T12:30:18.188Z,1.80
2022-10-05T12:35:01.919Z,1.35
2022-10-05T12:39:40.227Z,1.23
2022-10-05T12:44:04.702Z,1.13
2022-10-05T12:48:53.100Z,1.38
2022-10-05T12:53:43.259Z,1.42
2022-10-05T12:58:09.597Z,1.20
2022-10-05T13:02:45.837Z,1.30
2022-10-05T13:07:24.543Z,1.92
2022-10-05T13:11:45.523Z,1.50
2022-10-05T13:16:12.524Z,1.70
2022-10-05T13:20:46.278Z,1.50
2022-10-05T13:25:29.597Z,1.50
2022-10-05T13:29:58.598Z,1.50
2022-10-05T13:34:26.414Z,1.45
2022-10-05T13:38:51.736Z,1.42
2022-10-05T13:43:39.326Z,1.27
2022-10-05T13:48:16.239Z,1.60
2022-10-05T13:52:42.156Z,1.20
2022-10-05T13:57:13.529Z,1.30
2022-10-05T14:02:02.057Z,1.17
2022-10-05T14:06:29.930Z,1.10
2022-10-05T14:10:48.075Z,1.55
2022-10-05T14:15:21.137Z,1.40
2022-10-05T14:19:48.437Z,1.70
2022-10-05T14:24:44.991Z,1.60
2022-10-05T14:29:14.442Z,1.42
2022-10-05T14:33:34.858Z,1.40
2022-10-05T14:38:15.453Z,1.52
2022-10-05T14:42:46.930Z,1.30
2022-10-05T14:47:24.494Z,1.65
2022-10-05T14:51:42.754Z,1.65
2022-10-05T14:56:12.395Z,2.00
2022-10-05T15:00:38.283Z,2.30
2022-10-05T15:05:04.494Z,2.80
2022-10-05T15:09:54.338Z,2.25
2022-10-05T15:14:37.405Z,3.05
2022-10-05T15:19:40.190Z,2.75
2022-10-05T15:24:17.615Z,2.38
2022-10-05T15:28:48.311Z,2.55
2022-10-05T15:33:28.743Z,2.80
2022-10-05T15:38:20.823Z,2.60
2022-10-05T15:42:43.017Z,2.38
2022-10-05T15:47:43.593Z,2.72
2022-10-05T15:52:11.511Z,2.92
2022-10-05T15:56:38.829Z,2.58
2022-10-05T16:01:02.381Z,2.72
2022-10-05T16:06:02.611Z,2.65
2022-10-05T16:10:26.661Z,2.80
2022-10-05T16:14:56.324Z,2.47
2022-10-05T16:19:39.781Z,2.90
2022-10-05T16:24:05.793Z,2.97
2022-10-05T16:28:57.972Z,3.13
2022-10-05T16:33:29.121Z,2.55
2022-10-05T16:38:20.377Z,2.65
2022-10-05T16:43:03.396Z,2.80
2022-10-05T16:47:28.908Z,2.75
2022-10-05T16:52:00.517Z,3.30
2022-10-05T16:56:25.327Z,2.97
2022-10-05T17:01:04.539Z,3.45
2022-10-05T17:05:44.245Z,3.15
2022-10-05T17:14:51.809Z,3.83
2022-10-05T17:28:18.583Z,3.33
2022-10-05T17:32:39.566Z,2.97
2022-10-05T17:37:14.592Z,2.88
2022-10-05T17:41:32.875Z,5.05
2022-10-05T17:46:12.377Z,3.30
2022-10-05T17:51:01.434Z,3.30
2022-10-05T17:55:34.142Z,3.63
2022-10-05T17:59:57.174Z,3.28
2022-10-05T18:04:16.120Z,4.47
2022-10-05T18:13:00.915Z,5.05
2022-10-05T18:17:46.298Z,5.45
2022-10-05T18:22:15.556Z,4.63
2022-10-05T18:31:26.723Z,2.70
2022-10-05T18:36:13.644Z,2.80
2022-10-05T18:40:53.286Z,2.85
2022-10-05T18:49:47.250Z,3.67
2022-10-05T18:54:13.359Z,3.70
2022-10-05T18:58:36.369Z,6.65
2022-10-05T19:03:15.470Z,5.63
2022-10-05T19:08:08.718Z,7.00
2022-10-05T19:12:44.915Z,5.63
2022-10-05T19:17:18.999Z,4.47
2022-10-05T19:21:49.837Z,3.70
2022-10-05T19:26:28.035Z,4.00
2022-10-05T19:30:57.146Z,3.83
2022-10-05T19:35:38.952Z,3.75
2022-10-05T19:40:34.573Z,4.05
2022-10-05T19:45:15.890Z,3.80
2022-10-05T19:49:36.967Z,3.47
2022-10-05T19:53:56.195Z,3.28
2022-10-05T19:58:28.241Z,3.10
2022-10-05T20:02:45.827Z,3.03
2022-10-05T20:07:03.787Z,2.88
2022-10-05T20:11:22.965Z,2.95
2022-10-05T20:15:59.000Z,2.38
2022-10-05T20:20:47.073Z,2.90
2022-10-05T20:25:18.356Z,2.72
2022-10-05T20:29:40.595Z,2.50
2022-10-05T20:33:59.424Z,2.78
2022-10-05T20:42:33.658Z,3.05
2022-10-05T20:46:50.909Z,3.50
2022-10-05T20:51:08.717Z,3.33
2022-10-05T20:55:31.239Z,3.60
2022-10-05T20:59:48.533Z,3.70
2022-10-05T21:04:06.888Z,3.97
2022-10-05T21:08:25.134Z,3.95
2022-10-05T21:12:42.710Z,3.65
2022-10-05T21:17:00.421Z,3.70
2022-10-05T21:21:18.085Z,3.90
2022-10-05T21:25:35.294Z,4.30
2022-10-05T21:29:52.501Z,4.05
2022-10-05T21:34:09.725Z,3.80
2022-10-05T21:38:28.270Z,3.83
2022-10-05T21:42:45.635Z,4.25
2022-10-05T21:47:04.231Z,3.63
2022-10-05T21:51:24.164Z,4.00
2022-10-05T21:55:43.449Z,4.07
2022-10-05T22:00:00.817Z,3.80
2022-10-05T22:04:18.386Z,4.43
2022-10-05T22:08:35.781Z,4.25
2022-10-05T22:12:52.967Z,3.92
2022-10-05T22:17:15.198Z,4.25
2022-10-05T22:21:37.737Z,4.55
2022-10-05T22:25:55.024Z,4.63
2022-10-05T22:30:14.753Z,4.57
2022-10-05T22:34:32.180Z,4.50
2022-10-05T22:38:49.468Z,4.57
2022-10-05T22:43:07.520Z,4.45
2022-10-05T22:47:24.889Z,4.10
2022-10-05T22:51:42.099Z,4.43
2022-10-05T22:56:04.943Z,4.25
2022-10-05T23:00:27.595Z,4.22
2022-10-05T23:04:48.473Z,4.45
2022-10-05T23:09:05.632Z,4.22
2022-10-05T23:13:22.922Z,4.35
2022-10-05T23:17:40.650Z,3.95
2022-10-05T23:21:57.867Z,4.68
2022-10-05T23:26:16.073Z,4.60
2022-10-05T23:30:33.340Z,3.93
2022-10-05T23:34:50.843Z,3.95
2022-10-05T23:39:08.015Z,4.10
2022-10-05T23:43:26.193Z,3.80
2022-10-05T23:47:43.540Z,3.72
2022-10-05T23:52:00.749Z,3.55
2022-10-05T23:56:17.974Z,3.70
